createdAt,value
2019-02-27T00:01:11.484Z,4.50
2019-02-27T00:03:40.319Z,4.50
2019-02-27T00:06:10.091Z,4.50
2019-02-27T00:08:39.004Z,4.30
2019-02-27T00:11:09.940Z,4.20
2019-02-27T00:13:38.228Z,3.90
2019-02-27T00:16:10.822Z,3.70
2019-02-27T00:18:38.234Z,3.80
2019-02-27T00:21:11.001Z,3.90
2019-02-27T00:23:40.241Z,3.80
2019-02-27T00:26:09.658Z,4.00
2019-02-27T00:28:38.531Z,4.00
2019-02-27T00:31:11.145Z,4.10
2019-02-27T00:33:41.305Z,4.10
2019-02-27T00:36:13.437Z,4.10
2019-02-27T00:38:42.581Z,4.00
2019-02-27T00:41:12.915Z,3.90
2019-02-27T00:43:42.086Z,3.70
2019-02-27T00:46:13.322Z,3.70
2019-02-27T00:48:42.785Z,3.70
2019-02-27T00:51:11.949Z,3.80
2019-02-27T00:53:41.664Z,3.80
2019-02-27T00:56:12.284Z,3.90
2019-02-27T00:58:41.911Z,3.80
2019-02-27T01:01:12.639Z,3.80
2019-02-27T01:03:41.340Z,3.60
2019-02-27T01:06:12.260Z,3.50
2019-02-27T01:08:40.668Z,3.40
2019-02-27T01:11:09.488Z,3.30
2019-02-27T01:13:38.254Z,3.30
2019-02-27T01:16:07.613Z,3.20
2019-02-27T01:18:36.489Z,3.30
2019-02-27T01:21:05.420Z,3.30
2019-02-27T01:23:34.280Z,3.30
2019-02-27T01:26:03.315Z,3.20
2019-02-27T01:28:33.631Z,3.20
2019-02-27T01:31:04.887Z,3.20
2019-02-27T01:33:37.802Z,3.10
2019-02-27T01:36:05.135Z,3.10
2019-02-27T01:38:37.625Z,3.10
2019-02-27T01:41:04.842Z,3.10
2019-02-27T01:43:34.054Z,3.10
2019-02-27T01:46:03.968Z,3.20
2019-02-27T01:48:32.746Z,3.20
2019-02-27T01:51:01.514Z,3.10
2019-02-27T01:53:30.274Z,3.00
2019-02-27T01:55:59.025Z,3.00
2019-02-27T01:58:27.711Z,3.00
2019-02-27T02:00:56.818Z,3.00
2019-02-27T02:03:25.775Z,3.00
2019-02-27T02:05:58.777Z,3.00
2019-02-27T02:08:25.816Z,3.00
2019-02-27T02:10:58.855Z,2.80
2019-02-27T02:13:30.431Z,2.80
2019-02-27T02:16:02.119Z,2.80
2019-02-27T02:18:35.077Z,2.80
2019-02-27T02:21:06.678Z,2.90
2019-02-27T02:23:37.775Z,2.90
2019-02-27T02:26:09.289Z,3.00
2019-02-27T02:28:39.236Z,3.00
2019-02-27T02:31:13.178Z,3.00
2019-02-27T02:33:45.106Z,3.10
2019-02-27T02:36:25.022Z,3.10
2019-02-27T02:38:51.694Z,3.10
2019-02-27T02:41:23.362Z,3.20
2019-02-27T02:43:54.353Z,3.10
2019-02-27T02:46:26.371Z,3.00
2019-02-27T02:48:57.344Z,3.00
2019-02-27T02:51:29.867Z,2.80
2019-02-27T02:54:02.208Z,2.90
2019-02-27T02:56:33.941Z,2.90
2019-02-27T02:59:05.541Z,2.90
2019-02-27T03:01:37.195Z,2.90
2019-02-27T03:04:12.466Z,2.90
2019-02-27T03:06:40.834Z,2.90
2019-02-27T03:09:12.385Z,2.90
2019-02-27T03:11:44.037Z,2.90
2019-02-27T03:14:17.627Z,2.90
2019-02-27T03:16:48.409Z,2.70
2019-02-27T03:19:18.363Z,2.60
2019-02-27T03:21:48.329Z,2.50
2019-02-27T03:24:19.295Z,2.50
2019-02-27T03:26:53.038Z,2.40
2019-02-27T03:29:24.571Z,2.40
2019-02-27T03:32:00.150Z,2.30
2019-02-27T03:34:30.111Z,2.30
2019-02-27T03:37:01.994Z,2.20
2019-02-27T03:39:34.909Z,2.10
2019-02-27T03:42:06.621Z,2.10
2019-02-27T03:44:36.851Z,2.10
2019-02-27T03:47:06.731Z,2.10
2019-02-27T03:49:40.787Z,2.20
2019-02-27T03:52:11.055Z,2.20
2019-02-27T03:54:41.116Z,2.20
2019-02-27T03:57:12.108Z,2.00
2019-02-27T03:59:43.874Z,2.00
2019-02-27T04:02:15.470Z,1.90
2019-02-27T04:04:47.128Z,1.90
2019-02-27T04:07:18.864Z,1.80
2019-02-27T04:09:54.813Z,1.70
2019-02-27T04:12:20.823Z,1.60
2019-02-27T04:14:49.832Z,1.60
2019-02-27T04:17:21.530Z,1.70
2019-02-27T04:19:50.328Z,1.80
2019-02-27T04:22:19.161Z,1.90
2019-02-27T04:24:47.991Z,1.90
2019-02-27T04:27:20.286Z,1.90
2019-02-27T04:29:48.173Z,2.00
2019-02-27T04:32:17.604Z,2.00
2019-02-27T04:34:49.159Z,2.00
2019-02-27T04:37:20.350Z,2.00
2019-02-27T04:39:48.987Z,2.00
2019-02-27T04:42:17.750Z,2.10
2019-02-27T04:44:46.643Z,2.10
2019-02-27T04:47:15.482Z,2.10
2019-02-27T04:49:44.896Z,2.00
2019-02-27T04:52:14.242Z,2.00
2019-02-27T04:54:42.947Z,1.90
2019-02-27T04:57:11.708Z,1.90
2019-02-27T04:59:40.556Z,1.80
2019-02-27T05:02:09.127Z,1.90
2019-02-27T05:04:39.303Z,1.90
2019-02-27T05:07:08.166Z,1.90
2019-02-27T05:09:36.988Z,1.80
2019-02-27T05:12:08.023Z,1.70
2019-02-27T05:14:37.354Z,1.50
2019-02-27T05:17:06.221Z,1.30
2019-02-27T05:19:37.215Z,1.20
2019-02-27T05:22:06.256Z,1.10
2019-02-27T05:24:35.080Z,1.00
2019-02-27T05:27:04.137Z,0.90
2019-02-27T05:29:35.145Z,0.80
2019-02-27T05:32:05.010Z,0.70
2019-02-27T05:34:34.727Z,0.70
2019-02-27T05:37:05.260Z,0.60
2019-02-27T05:39:36.356Z,0.60
2019-02-27T05:42:07.923Z,0.70
2019-02-27T05:44:36.778Z,0.60
2019-02-27T05:47:05.606Z,0.70
2019-02-27T05:49:34.382Z,0.60
2019-02-27T05:52:03.248Z,0.60
2019-02-27T05:54:32.925Z,0.50
2019-02-27T05:57:02.378Z,0.40
2019-02-27T05:59:31.243Z,0.50
2019-02-27T06:02:00.016Z,0.70
2019-02-27T06:04:28.734Z,0.80
2019-02-27T06:06:57.463Z,0.80
2019-02-27T06:09:26.799Z,0.70
2019-02-27T06:11:55.671Z,0.70
2019-02-27T06:14:24.563Z,0.60
2019-02-27T06:16:53.332Z,0.60
2019-02-27T06:19:22.356Z,0.50
2019-02-27T06:21:51.326Z,0.50
2019-02-27T06:24:21.607Z,0.50
2019-02-27T06:26:50.469Z,0.40
2019-02-27T06:29:23.372Z,0.30
2019-02-27T06:31:50.322Z,0.30
2019-02-27T06:34:19.486Z,0.40
2019-02-27T06:36:53.356Z,0.70
2019-02-27T06:39:22.592Z,1.10
2019-02-27T06:41:53.338Z,1.80
2019-02-27T06:44:23.394Z,2.60
2019-02-27T06:46:53.866Z,3.50
2019-02-27T06:49:22.605Z,4.30
2019-02-27T06:51:51.378Z,5.00
2019-02-27T06:54:20.171Z,5.60
2019-02-27T06:56:48.977Z,6.30
2019-02-27T06:59:18.253Z,7.10
2019-02-27T07:01:47.537Z,7.60
2019-02-27T07:04:16.989Z,8.30
2019-02-27T07:06:45.848Z,8.80
2019-02-27T07:09:18.186Z,9.20
2019-02-27T07:11:48.827Z,9.30
2019-02-27T07:14:17.423Z,9.40
2019-02-27T07:16:46.154Z,9.60
2019-02-27T07:19:15.750Z,10.00
2019-02-27T07:21:45.330Z,10.00
2019-02-27T07:24:16.461Z,10.10
2019-02-27T07:26:47.571Z,10.20
2019-02-27T07:29:21.532Z,10.40
2019-02-27T07:31:46.451Z,10.90
2019-02-27T07:34:22.814Z,11.20
2019-02-27T07:36:55.674Z,11.20
2019-02-27T07:39:25.382Z,11.20
2019-02-27T07:41:54.180Z,11.60
2019-02-27T07:44:23.561Z,12.10
2019-02-27T07:46:57.153Z,12.20
2019-02-27T07:49:22.875Z,12.40
2019-02-27T07:51:51.659Z,12.60
2019-02-27T07:54:20.427Z,12.60
2019-02-27T07:56:49.263Z,12.80
2019-02-27T07:59:18.615Z,12.90
2019-02-27T08:01:47.498Z,13.10
2019-02-27T08:04:19.006Z,12.80
2019-02-27T08:06:46.861Z,12.50
2019-02-27T08:09:16.529Z,12.70
2019-02-27T08:11:47.334Z,13.20
2019-02-27T08:14:15.794Z,13.60
2019-02-27T08:16:44.565Z,14.10
2019-02-27T08:19:13.339Z,14.40
2019-02-27T08:21:44.785Z,14.70
2019-02-27T08:24:14.366Z,15.00
2019-02-27T08:26:43.287Z,15.00
2019-02-27T08:29:12.013Z,15.20
2019-02-27T08:31:41.273Z,15.60
2019-02-27T08:34:10.374Z,15.50
2019-02-27T08:36:40.352Z,14.80
2019-02-27T08:39:09.135Z,14.90
2019-02-27T08:41:37.908Z,15.40
2019-02-27T08:44:06.645Z,15.50
2019-02-27T08:46:37.141Z,15.50
2019-02-27T08:49:06.614Z,15.60
2019-02-27T08:51:35.481Z,16.30
2019-02-27T08:54:04.368Z,16.60
2019-02-27T08:56:33.105Z,16.20
2019-02-27T08:59:05.090Z,16.50
2019-02-27T09:01:33.187Z,15.70
2019-02-27T09:04:01.900Z,15.50
2019-02-27T09:06:30.709Z,15.80
2019-02-27T09:08:59.638Z,15.90
2019-02-27T09:11:29.360Z,16.20
2019-02-27T09:13:58.094Z,16.40
2019-02-27T09:16:26.843Z,17.10
2019-02-27T09:18:55.696Z,17.60
2019-02-27T09:21:27.597Z,17.50
2019-02-27T09:23:55.122Z,17.60
2019-02-27T09:26:24.354Z,17.70
2019-02-27T09:28:53.620Z,18.10
2019-02-27T09:31:23.367Z,18.70
2019-02-27T09:33:53.424Z,19.70
2019-02-27T09:36:22.808Z,20.60
2019-02-27T09:38:51.653Z,21.10
2019-02-27T09:41:20.342Z,20.80
2019-02-27T09:43:50.468Z,20.80
2019-02-27T09:46:20.064Z,20.90
2019-02-27T09:48:49.115Z,20.20
2019-02-27T09:51:19.113Z,19.90
2019-02-27T09:53:49.049Z,20.10
2019-02-27T09:56:17.820Z,20.10
2019-02-27T09:58:46.623Z,20.10
2019-02-27T10:01:17.978Z,19.70
2019-02-27T10:03:46.715Z,19.80
2019-02-27T10:06:15.471Z,20.20
2019-02-27T10:08:44.249Z,20.20
2019-02-27T10:11:13.083Z,20.40
2019-02-27T10:13:41.864Z,20.90
2019-02-27T10:16:12.044Z,20.70
2019-02-27T10:18:41.259Z,20.50
2019-02-27T10:21:12.025Z,20.50
2019-02-27T10:23:40.637Z,20.50
2019-02-27T10:26:10.095Z,20.40
2019-02-27T10:28:39.792Z,20.20
2019-02-27T10:31:08.910Z,20.10
2019-02-27T10:33:37.749Z,20.20
2019-02-27T10:36:07.140Z,20.30
2019-02-27T10:38:40.195Z,20.20
2019-02-27T10:41:06.370Z,19.80
2019-02-27T10:43:35.170Z,19.50
2019-02-27T10:46:04.675Z,19.40
2019-02-27T10:48:33.459Z,19.40
2019-02-27T10:51:02.280Z,19.30
2019-02-27T10:53:31.036Z,19.40
2019-02-27T10:56:00.770Z,19.50
2019-02-27T10:58:29.536Z,19.40
2019-02-27T11:01:01.127Z,19.50
2019-02-27T11:03:29.017Z,19.60
2019-02-27T11:05:57.806Z,19.50
2019-02-27T11:08:29.136Z,19.80
2019-02-27T11:10:57.248Z,19.70
2019-02-27T11:13:26.135Z,19.50
2019-02-27T11:15:54.959Z,19.50
2019-02-27T11:18:23.802Z,19.60
2019-02-27T11:20:55.952Z,19.80
2019-02-27T11:23:24.199Z,19.90
2019-02-27T11:25:56.655Z,20.00
2019-02-27T11:28:24.007Z,20.20
2019-02-27T11:30:52.899Z,20.30
2019-02-27T11:33:25.466Z,20.30
2019-02-27T11:35:52.252Z,20.30
2019-02-27T11:38:24.470Z,20.30
2019-02-27T11:40:51.561Z,20.60
2019-02-27T11:43:20.373Z,20.70
2019-02-27T11:45:49.131Z,20.60
2019-02-27T11:48:20.383Z,20.60
2019-02-27T11:50:48.478Z,20.40
2019-02-27T11:53:17.254Z,20.30
2019-02-27T11:55:47.136Z,20.50
2019-02-27T11:58:16.458Z,20.50
2019-02-27T12:00:45.928Z,20.80
2019-02-27T12:03:15.357Z,21.00
2019-02-27T12:05:44.203Z,21.20
2019-02-27T12:08:13.969Z,20.90
2019-02-27T12:10:42.732Z,20.40
2019-02-27T12:13:11.585Z,19.90
2019-02-27T12:15:43.394Z,19.50
2019-02-27T12:18:11.086Z,19.30
2019-02-27T12:20:41.192Z,19.10
2019-02-27T12:23:10.079Z,19.00
2019-02-27T12:25:39.821Z,18.90
2019-02-27T12:28:09.745Z,18.80
2019-02-27T12:30:38.702Z,18.70
2019-02-27T12:33:07.504Z,18.70
2019-02-27T12:35:37.165Z,18.70
2019-02-27T12:38:08.081Z,18.70
2019-02-27T12:40:38.117Z,18.60
2019-02-27T12:43:07.525Z,18.70
2019-02-27T12:45:36.365Z,18.70
2019-02-27T12:48:05.317Z,18.70
2019-02-27T12:50:34.345Z,18.70
2019-02-27T12:53:03.123Z,18.80
2019-02-27T12:55:35.383Z,18.80
2019-02-27T12:58:02.389Z,18.80
2019-02-27T13:00:32.686Z,18.70
2019-02-27T13:03:01.500Z,18.60
2019-02-27T13:05:30.969Z,18.60
2019-02-27T13:07:59.731Z,18.60
2019-02-27T13:10:33.139Z,18.70
2019-02-27T13:13:01.759Z,18.70
2019-02-27T13:15:30.996Z,18.70
2019-02-27T13:18:01.238Z,18.70
2019-02-27T13:20:33.315Z,18.70
2019-02-27T13:23:05.133Z,18.70
2019-02-27T13:25:35.489Z,18.70
2019-02-27T13:28:05.647Z,18.70
2019-02-27T13:30:41.387Z,18.60
2019-02-27T13:33:07.826Z,18.60
2019-02-27T13:35:37.499Z,18.70
2019-02-27T13:38:09.592Z,18.60
2019-02-27T13:40:39.700Z,18.60
2019-02-27T13:43:08.531Z,18.60
2019-02-27T13:45:38.770Z,18.50
2019-02-27T13:48:07.544Z,18.50
2019-02-27T13:50:36.841Z,18.50
2019-02-27T13:53:05.888Z,18.60
2019-02-27T13:55:34.704Z,19.40
2019-02-27T13:58:03.980Z,21.20
2019-02-27T14:03:32.289Z,22.90
2019-02-27T14:06:29.315Z,23.30
2019-02-27T14:12:08.243Z,24.10
2019-02-27T14:14:37.054Z,24.60
2019-02-27T14:17:07.745Z,25.20
2019-02-27T14:19:36.654Z,24.80
2019-02-27T14:22:07.566Z,24.80
2019-02-27T14:24:38.192Z,25.00
2019-02-27T14:27:07.335Z,25.30
2019-02-27T14:29:36.203Z,25.30
2019-02-27T14:32:05.136Z,24.80
2019-02-27T14:34:35.345Z,24.40
2019-02-27T14:37:06.609Z,24.70
2019-02-27T14:39:36.046Z,24.20
2019-02-27T14:42:05.095Z,24.00
2019-02-27T14:44:33.874Z,24.10
2019-02-27T14:47:02.796Z,24.40
2019-02-27T14:49:32.191Z,24.80
2019-02-27T14:52:00.963Z,24.50
2019-02-27T14:54:29.916Z,24.20
2019-02-27T14:56:59.851Z,23.80
2019-02-27T14:59:31.326Z,22.80
2019-02-27T15:02:00.412Z,21.70
2019-02-27T15:04:32.284Z,20.80
2019-02-27T15:06:59.803Z,20.20
2019-02-27T15:09:28.699Z,19.70
2019-02-27T15:11:57.570Z,19.50
2019-02-27T15:14:26.422Z,19.20
2019-02-27T15:16:55.195Z,19.00
2019-02-27T15:19:26.868Z,18.80
2019-02-27T15:21:55.775Z,18.50
2019-02-27T15:24:24.651Z,18.40
2019-02-27T15:26:53.330Z,18.40
2019-02-27T15:29:22.153Z,18.30
2019-02-27T15:31:52.177Z,18.30
2019-02-27T15:34:21.753Z,18.40
2019-02-27T15:36:50.616Z,18.30
2019-02-27T15:39:21.167Z,18.20
2019-02-27T15:41:49.876Z,18.20
2019-02-27T15:44:19.972Z,18.20
2019-02-27T15:46:49.168Z,18.10
2019-02-27T15:49:18.800Z,18.10
2019-02-27T15:51:47.584Z,18.00
2019-02-27T15:54:17.811Z,17.90
2019-02-27T15:56:46.694Z,17.80
2019-02-27T15:59:16.547Z,17.80
2019-02-27T16:01:45.393Z,17.80
2019-02-27T16:04:14.173Z,17.70
2019-02-27T16:06:42.961Z,17.50
2019-02-27T16:09:15.295Z,17.40
2019-02-27T16:11:44.293Z,17.50
2019-02-27T16:14:13.094Z,17.40
2019-02-27T16:16:41.944Z,17.20
2019-02-27T16:19:11.589Z,17.10
2019-02-27T16:21:41.976Z,17.00
2019-02-27T16:24:13.596Z,16.80
2019-02-27T16:26:43.899Z,16.60
2019-02-27T16:29:12.801Z,16.40
2019-02-27T16:31:43.181Z,16.10
2019-02-27T16:34:12.416Z,16.00
2019-02-27T16:36:42.190Z,15.80
2019-02-27T16:39:11.872Z,15.70
2019-02-27T16:41:41.344Z,15.50
2019-02-27T16:44:11.135Z,15.40
2019-02-27T16:46:44.606Z,15.30
2019-02-27T16:49:10.904Z,15.20
2019-02-27T16:51:41.655Z,15.10
2019-02-27T16:54:11.827Z,15.00
2019-02-27T16:56:46.266Z,14.90
2019-02-27T16:59:12.147Z,14.70
2019-02-27T17:01:41.450Z,14.60
2019-02-27T17:04:11.907Z,14.70
2019-02-27T17:06:40.767Z,14.80
2019-02-27T17:09:13.259Z,14.90
2019-02-27T17:11:41.585Z,14.90
2019-02-27T17:14:10.330Z,14.90
2019-02-27T17:16:44.296Z,15.00
2019-02-27T17:19:11.844Z,15.00
2019-02-27T17:21:41.977Z,15.10
2019-02-27T17:24:10.790Z,15.10
2019-02-27T17:26:41.775Z,15.00
2019-02-27T17:29:10.654Z,14.90
2019-02-27T17:31:48.982Z,14.90
2019-02-27T17:34:13.773Z,14.70
2019-02-27T17:36:44.571Z,14.60
2019-02-27T17:39:18.475Z,14.50
2019-02-27T17:41:47.383Z,14.30
2019-02-27T17:44:16.303Z,14.30
2019-02-27T17:46:45.586Z,14.20
2019-02-27T17:49:17.312Z,14.10
2019-02-27T17:51:46.313Z,14.00
2019-02-27T17:54:17.280Z,13.90
2019-02-27T17:56:50.706Z,13.70
2019-02-27T18:02:47.688Z,13.20
2019-02-27T18:05:17.954Z,12.90
2019-02-27T18:07:48.267Z,13.00
2019-02-27T18:10:18.712Z,13.10
2019-02-27T18:15:54.014Z,13.10
2019-02-27T18:18:23.124Z,13.00
2019-02-27T18:20:56.672Z,12.90
2019-02-27T18:23:29.005Z,12.80
2019-02-27T18:28:54.938Z,12.50
2019-02-27T18:31:26.883Z,12.30
2019-02-27T18:33:57.622Z,12.20
2019-02-27T18:36:30.719Z,12.10
2019-02-27T18:39:20.113Z,12.10
2019-02-27T18:41:49.142Z,12.00
2019-02-27T18:47:10.504Z,11.60
2019-02-27T18:49:43.723Z,11.50
2019-02-27T18:52:21.170Z,11.40
2019-02-27T18:54:47.476Z,11.40
2019-02-27T18:57:16.376Z,11.40
2019-02-27T18:59:47.835Z,11.40
2019-02-27T19:02:19.702Z,11.30
2019-02-27T19:04:48.881Z,11.20
2019-02-27T19:07:20.176Z,11.20
2019-02-27T19:09:50.524Z,10.90
2019-02-27T19:12:25.071Z,10.80
2019-02-27T19:14:51.254Z,10.70
2019-02-27T19:17:20.921Z,10.60
2019-02-27T19:19:50.440Z,10.50
2019-02-27T19:22:21.003Z,10.30
2019-02-27T19:24:50.081Z,10.20
2019-02-27T19:27:19.224Z,10.00
2019-02-27T19:29:49.312Z,10.00
2019-02-27T19:32:18.622Z,9.90
2019-02-27T19:34:49.010Z,9.70
2019-02-27T19:37:19.290Z,9.40
2019-02-27T19:39:49.723Z,9.10
2019-02-27T19:42:19.268Z,8.90
2019-02-27T19:44:49.671Z,8.70
2019-02-27T19:47:19.138Z,8.60
2019-02-27T19:49:49.368Z,8.50
2019-02-27T19:52:18.326Z,8.40
2019-02-27T19:54:51.890Z,8.20
2019-02-27T19:57:20.186Z,8.20
2019-02-27T19:59:49.749Z,8.10
2019-02-27T20:02:21.264Z,8.10
2019-02-27T20:04:49.399Z,8.20
2019-02-27T20:07:25.561Z,8.20
2019-02-27T20:09:55.422Z,8.20
2019-02-27T20:12:24.828Z,8.10
2019-02-27T20:14:56.252Z,8.10
2019-02-27T20:17:33.948Z,8.00
2019-02-27T20:20:04.196Z,8.00
2019-02-27T20:22:33.963Z,8.00
2019-02-27T20:25:02.961Z,7.90
2019-02-27T20:27:31.874Z,7.90
2019-02-27T20:30:00.739Z,7.80
2019-02-27T20:32:31.110Z,7.70
2019-02-27T20:35:01.591Z,7.70
2019-02-27T20:37:30.431Z,7.70
2019-02-27T20:39:59.505Z,7.80
2019-02-27T20:42:29.572Z,7.90
2019-02-27T20:44:59.203Z,8.20
2019-02-27T20:47:29.476Z,8.10
2019-02-27T20:49:59.767Z,8.00
2019-02-27T20:52:29.858Z,7.90
2019-02-27T20:54:59.890Z,7.80
2019-02-27T20:57:32.084Z,7.60
2019-02-27T21:00:02.864Z,7.50
2019-02-27T21:02:31.562Z,7.40
2019-02-27T21:05:00.535Z,7.30
2019-02-27T21:07:32.915Z,7.20
2019-02-27T21:10:01.736Z,7.10
2019-02-27T21:12:31.504Z,7.10
2019-02-27T21:15:00.907Z,7.00
2019-02-27T21:17:29.757Z,7.10
2019-02-27T21:19:59.215Z,7.10
2019-02-27T21:22:29.401Z,7.10
2019-02-27T21:24:58.239Z,7.20
2019-02-27T21:27:32.847Z,7.10
2019-02-27T21:30:01.069Z,7.10
2019-02-27T21:32:42.899Z,7.00
2019-02-27T21:35:12.459Z,6.90
2019-02-27T21:37:51.221Z,6.70
2019-02-27T21:40:22.828Z,6.60
2019-02-27T21:42:52.007Z,6.60
2019-02-27T21:45:24.178Z,6.50
2019-02-27T21:47:53.074Z,6.50
2019-02-27T21:50:24.730Z,6.80
2019-02-27T21:52:55.814Z,6.70
2019-02-27T21:55:25.034Z,6.60
2019-02-27T21:57:58.090Z,6.50
2019-02-27T22:00:28.799Z,6.40
2019-02-27T22:03:03.879Z,6.30
2019-02-27T22:05:31.434Z,6.20
2019-02-27T22:08:01.888Z,6.10
2019-02-27T22:10:30.710Z,6.10
2019-02-27T22:12:59.930Z,6.00
2019-02-27T22:15:29.807Z,5.90
2019-02-27T22:18:01.813Z,5.80
2019-02-27T22:20:30.610Z,5.70
2019-02-27T22:22:59.436Z,5.70
2019-02-27T22:25:31.051Z,5.60
2019-02-27T22:28:03.623Z,5.50
2019-02-27T22:30:34.851Z,5.50
2019-02-27T22:33:06.439Z,5.40
2019-02-27T22:35:37.797Z,5.40
2019-02-27T22:38:05.907Z,5.40
2019-02-27T22:40:37.883Z,5.40
2019-02-27T22:43:06.478Z,5.50
2019-02-27T22:45:36.071Z,5.50
2019-02-27T22:48:05.898Z,5.60
2019-02-27T22:50:34.785Z,5.60
2019-02-27T22:53:05.169Z,5.60
2019-02-27T22:55:36.308Z,5.60
2019-02-27T22:58:06.803Z,5.70
2019-02-27T23:00:42.957Z,5.70
2019-02-27T23:03:15.291Z,5.80
2019-02-27T23:05:44.146Z,5.70
2019-02-27T23:08:14.023Z,5.60
2019-02-27T23:10:48.009Z,5.50
2019-02-27T23:13:17.499Z,5.50
2019-02-27T23:15:46.340Z,5.60
2019-02-27T23:18:15.096Z,5.60
2019-02-27T23:20:45.247Z,5.60
2019-02-27T23:23:15.112Z,5.50
2019-02-27T23:25:46.486Z,5.50
2019-02-27T23:28:16.541Z,5.50
2019-02-27T23:30:47.042Z,5.50
2019-02-27T23:33:16.857Z,5.50
2019-02-27T23:35:47.369Z,5.70
2019-02-27T23:38:17.464Z,5.90
2019-02-27T23:40:48.994Z,6.00
2019-02-27T23:43:16.915Z,5.90
2019-02-27T23:45:47.558Z,5.90
2019-02-27T23:48:16.357Z,5.80
2019-02-27T23:50:45.222Z,5.70
2019-02-27T23:53:15.215Z,5.50
2019-02-27T23:55:45.401Z,5.40
2019-02-27T23:58:14.308Z,5.40
